sensor_id;sensor_type;location;lat;lon;timestamp;pressure;altitude;pressure_sealevel;temperature;humidity
58534;BME280;44109;52.398;7.024;2023-04-09T00:00:41;102454.78;;;10.48;100.00
58534;BME280;44109;52.398;7.024;2023-04-09T00:03:08;102456.41;;;10.49;100.00
58534;BME280;44109;52.398;7.024;2023-04-09T00:05:38;102451.69;;;10.49;100.00
58534;BME280;44109;52.398;7.024;2023-04-09T00:08:06;102449.91;;;10.45;100.00
58534;BME280;44109;52.398;7.024;2023-04-09T00:10:34;102452.53;;;10.32;100.00
58534;BME280;44109;52.398;7.024;2023-04-09T00:13:03;102456.75;;;10.30;100.00
58534;BME280;44109;52.398;7.024;2023-04-09T00:15:31;102453.81;;;10.26;100.00
58534;BME280;44109;52.398;7.024;2023-04-09T00:17:58;102448.28;;;10.26;100.00
58534;BME280;44109;52.398;7.024;2023-04-09T00:20:26;102396.56;;;9.87;100.00
58534;BME280;44109;52.398;7.024;2023-04-09T00:22:54;102447.44;;;10.26;100.00
58534;BME280;44109;52.398;7.024;2023-04-09T00:25:23;102455.28;;;10.24;100.00
58534;BME280;44109;52.398;7.024;2023-04-09T00:27:50;102443.56;;;10.27;100.00
58534;BME280;44109;52.398;7.024;2023-04-09T00:30:20;102448.44;;;10.38;100.00
58534;BME280;44109;52.398;7.024;2023-04-09T00:32:48;102446.63;;;10.43;100.00
58534;BME280;44109;52.398;7.024;2023-04-09T00:35:16;102443.69;;;10.39;100.00
58534;BME280;44109;52.398;7.024;2023-04-09T00:37:43;102447.28;;;10.39;100.00
58534;BME280;44109;52.398;7.024;2023-04-09T00:40:11;102436.34;;;10.43;100.00
58534;BME280;44109;52.398;7.024;2023-04-09T00:42:39;102427.84;;;10.48;100.00
58534;BME280;44109;52.398;7.024;2023-04-09T00:45:08;102435.19;;;10.53;100.00
58534;BME280;44109;52.398;7.024;2023-04-09T00:47:37;102427.38;;;10.55;100.00
58534;BME280;44109;52.398;7.024;2023-04-09T00:50:06;102424.41;;;10.51;100.00
58534;BME280;44109;52.398;7.024;2023-04-09T00:52:34;102428.97;;;10.56;100.00
58534;BME280;44109;52.398;7.024;2023-04-09T00:55:03;102433.22;;;10.53;100.00
58534;BME280;44109;52.398;7.024;2023-04-09T00:57:35;102431.44;;;10.49;100.00
58534;BME280;44109;52.398;7.024;2023-04-09T01:00:04;102429.00;;;10.47;100.00
58534;BME280;44109;52.398;7.024;2023-04-09T01:02:33;102430.63;;;10.39;100.00
58534;BME280;44109;52.398;7.024;2023-04-09T01:05:03;102430.63;;;10.39;100.00
58534;BME280;44109;52.398;7.024;2023-04-09T01:07:41;102426.41;;;10.33;100.00
58534;BME280;44109;52.398;7.024;2023-04-09T01:10:23;102412.38;;;10.38;100.00
58534;BME280;44109;52.398;7.024;2023-04-09T01:13:05;102417.75;;;10.35;100.00
58534;BME280;44109;52.398;7.024;2023-04-09T01:15:39;102421.19;;;10.23;100.00
58534;BME280;44109;52.398;7.024;2023-04-09T01:18:18;102399.81;;;10.24;100.00
58534;BME280;44109;52.398;7.024;2023-04-09T01:20:56;102418.56;;;10.35;100.00
58534;BME280;44109;52.398;7.024;2023-04-09T01:23:36;102425.94;;;10.31;100.00
58534;BME280;44109;52.398;7.024;2023-04-09T01:26:26;102424.28;;;10.39;100.00
58534;BME280;44109;52.398;7.024;2023-04-09T01:29:09;102408.94;;;10.41;100.00
58534;BME280;44109;52.398;7.024;2023-04-09T01:31:38;102415.13;;;10.47;100.00
58534;BME280;44109;52.398;7.024;2023-04-09T01:34:10;102410.38;;;10.48;100.00
58534;BME280;44109;52.398;7.024;2023-04-09T01:36:39;102411.88;;;10.45;100.00
58534;BME280;44109;52.398;7.024;2023-04-09T01:39:10;102398.03;;;10.36;100.00
58534;BME280;44109;52.398;7.024;2023-04-09T01:41:39;102408.28;;;10.45;100.00
58534;BME280;44109;52.398;7.024;2023-04-09T01:44:11;102409.75;;;10.42;100.00
58534;BME280;44109;52.398;7.024;2023-04-09T01:46:40;102416.94;;;10.34;100.00
58534;BME280;44109;52.398;7.024;2023-04-09T01:49:09;102405.03;;;10.34;100.00
58534;BME280;44109;52.398;7.024;2023-04-09T01:51:37;102405.84;;;10.34;100.00
58534;BME280;44109;52.398;7.024;2023-04-09T01:54:05;102410.75;;;10.37;100.00
58534;BME280;44109;52.398;7.024;2023-04-09T01:56:41;102405.38;;;10.32;100.00
58534;BME280;44109;52.398;7.024;2023-04-09T01:59:11;102405.53;;;10.27;100.00
58534;BME280;44109;52.398;7.024;2023-04-09T02:01:43;102403.88;;;10.26;100.00
58534;BME280;44109;52.398;7.024;2023-04-09T02:04:16;102407.63;;;10.30;100.00
58534;BME280;44109;52.398;7.024;2023-04-09T02:06:55;102404.53;;;10.23;100.00
58534;BME280;44109;52.398;7.024;2023-04-09T02:09:28;102399.66;;;10.03;100.00
58534;BME280;44109;52.398;7.024;2023-04-09T02:12:00;102400.97;;;10.14;100.00
58534;BME280;44109;52.398;7.024;2023-04-09T02:14:32;102399.97;;;10.10;100.00
58534;BME280;44109;52.398;7.024;2023-04-09T02:17:02;102402.41;;;10.11;100.00
58534;BME280;44109;52.398;7.024;2023-04-09T02:19:39;102402.09;;;10.13;100.00
58534;BME280;44109;52.398;7.024;2023-04-09T02:22:07;102385.63;;;10.08;100.00
58534;BME280;44109;52.398;7.024;2023-04-09T02:24:36;102343.56;;;9.88;100.00
58534;BME280;44109;52.398;7.024;2023-04-09T02:27:05;102399.00;;;10.23;100.00
58534;BME280;44109;52.398;7.024;2023-04-09T02:29:35;102394.09;;;10.20;100.00
58534;BME280;44109;52.398;7.024;2023-04-09T02:32:02;102392.66;;;10.14;100.00
58534;BME280;44109;52.398;7.024;2023-04-09T02:34:30;102390.03;;;10.18;100.00
58534;BME280;44109;52.398;7.024;2023-04-09T02:36:58;102390.97;;;10.22;100.00
58534;BME280;44109;52.398;7.024;2023-04-09T02:39:26;102381.53;;;10.23;100.00
58534;BME280;44109;52.398;7.024;2023-04-09T02:41:53;102386.28;;;10.22;100.00
58534;BME280;44109;52.398;7.024;2023-04-09T02:44:21;102381.84;;;10.21;100.00
58534;BME280;44109;52.398;7.024;2023-04-09T02:46:50;102348.44;;;10.09;100.00
58534;BME280;44109;52.398;7.024;2023-04-09T02:49:18;102355.28;;;10.03;100.00
58534;BME280;44109;52.398;7.024;2023-04-09T02:51:46;102387.09;;;10.23;100.00
58534;BME280;44109;52.398;7.024;2023-04-09T02:54:13;102371.44;;;10.18;100.00
58534;BME280;44109;52.398;7.024;2023-04-09T02:56:41;102382.69;;;10.13;100.00
58534;BME280;44109;52.398;7.024;2023-04-09T02:59:09;102374.22;;;10.18;100.00
58534;BME280;44109;52.398;7.024;2023-04-09T03:01:36;102379.06;;;10.21;100.00
58534;BME280;44109;52.398;7.024;2023-04-09T03:04:05;102371.09;;;10.20;100.00
58534;BME280;44109;52.398;7.024;2023-04-09T03:06:33;102371.44;;;10.18;100.00
58534;BME280;44109;52.398;7.024;2023-04-09T03:09:00;102371.75;;;10.16;100.00
58534;BME280;44109;52.398;7.024;2023-04-09T03:11:28;102369.47;;;10.19;100.00
58534;BME280;44109;52.398;7.024;2023-04-09T03:13:56;102362.31;;;10.18;100.00
58534;BME280;44109;52.398;7.024;2023-04-09T03:16:23;102351.53;;;10.16;100.00
58534;BME280;44109;52.398;7.024;2023-04-09T03:18:51;102341.44;;;10.03;100.00
58534;BME280;44109;52.398;7.024;2023-04-09T03:21:20;102361.97;;;10.10;100.00
58534;BME280;44109;52.398;7.024;2023-04-09T03:23:48;102362.78;;;10.11;100.00
58534;BME280;44109;52.398;7.024;2023-04-09T03:26:15;102358.88;;;10.12;100.00
58534;BME280;44109;52.398;7.024;2023-04-09T03:28:43;102359.72;;;10.04;100.00
58534;BME280;44109;52.398;7.024;2023-04-09T03:31:10;102364.28;;;10.00;100.00
58534;BME280;44109;52.398;7.024;2023-04-09T03:33:39;102358.56;;;9.87;100.00
58534;BME280;44109;52.398;7.024;2023-04-09T03:36:07;102358.88;;;9.95;100.00
58534;BME280;44109;52.398;7.024;2023-04-09T03:38:36;102357.25;;;9.94;100.00
58534;BME280;44109;52.398;7.024;2023-04-09T03:41:03;102356.94;;;9.86;100.00
58534;BME280;44109;52.398;7.024;2023-04-09T03:43:31;102347.66;;;9.82;100.00
58534;BME280;44109;52.398;7.024;2023-04-09T03:45:59;102361.50;;;9.82;100.00
58534;BME280;44109;52.398;7.024;2023-04-09T03:48:26;102351.06;;;9.62;100.00
58534;BME280;44109;52.398;7.024;2023-04-09T03:50:54;102346.19;;;9.59;100.00
58534;BME280;44109;52.398;7.024;2023-04-09T03:53:21;102304.13;;;9.22;100.00
58534;BME280;44109;52.398;7.024;2023-04-09T03:55:50;102345.00;;;9.25;100.00
58534;BME280;44109;52.398;7.024;2023-04-09T03:58:18;102303.00;;;8.66;100.00
58534;BME280;44109;52.398;7.024;2023-04-09T04:00:46;102355.28;;;8.76;100.00
58534;BME280;44109;52.398;7.024;2023-04-09T04:03:13;102359.03;;;8.49;100.00
58534;BME280;44109;52.398;7.024;2023-04-09T04:05:42;102352.59;;;8.31;100.00
58534;BME280;44109;52.398;7.024;2023-04-09T04:08:09;102354.25;;;8.10;100.00
58534;BME280;44109;52.398;7.024;2023-04-09T04:10:37;102358.63;;;7.88;100.00
58534;BME280;44109;52.398;7.024;2023-04-09T04:13:06;102361.69;;;7.65;100.00
58534;BME280;44109;52.398;7.024;2023-04-09T04:15:38;102353.16;;;7.38;100.00
58534;BME280;44109;52.398;7.024;2023-04-09T04:18:07;102358.94;;;7.28;100.00
58534;BME280;44109;52.398;7.024;2023-04-09T04:20:36;102361.38;;;7.16;100.00
58534;BME280;44109;52.398;7.024;2023-04-09T04:23:04;102362.09;;;7.08;100.00
58534;BME280;44109;52.398;7.024;2023-04-09T04:25:32;102363.44;;;6.97;100.00
58534;BME280;44109;52.398;7.024;2023-04-09T04:27:59;102360.59;;;6.88;100.00
58534;BME280;44109;52.398;7.024;2023-04-09T04:30:29;102358.31;;;6.76;100.00
58534;BME280;44109;52.398;7.024;2023-04-09T04:32:56;102366.31;;;6.64;100.00
58534;BME280;44109;52.398;7.024;2023-04-09T04:35:24;102361.28;;;6.52;100.00
58534;BME280;44109;52.398;7.024;2023-04-09T04:37:51;102359.75;;;6.46;100.00
58534;BME280;44109;52.398;7.024;2023-04-09T04:40:19;102360.44;;;6.38;100.00
58534;BME280;44109;52.398;7.024;2023-04-09T04:42:47;102366.38;;;6.45;100.00
58534;BME280;44109;52.398;7.024;2023-04-09T04:45:14;102369.53;;;6.39;100.00
58534;BME280;44109;52.398;7.024;2023-04-09T04:47:43;102367.06;;;6.37;100.00
58534;BME280;44109;52.398;7.024;2023-04-09T04:50:11;102359.19;;;6.30;100.00
58534;BME280;44109;52.398;7.024;2023-04-09T04:52:39;102368.34;;;6.26;100.00
58534;BME280;44109;52.398;7.024;2023-04-09T04:55:07;102372.56;;;6.23;100.00
58534;BME280;44109;52.398;7.024;2023-04-09T04:57:35;102364.44;;;6.13;100.00
58534;BME280;44109;52.398;7.024;2023-04-09T05:00:03;102368.63;;;6.10;100.00
58534;BME280;44109;52.398;7.024;2023-04-09T05:02:31;102364.53;;;6.08;100.00
58534;BME280;44109;52.398;7.024;2023-04-09T05:05:00;102371.75;;;6.04;100.00
58534;BME280;44109;52.398;7.024;2023-04-09T05:07:28;102373.91;;;6.07;100.00
58534;BME280;44109;52.398;7.024;2023-04-09T05:10:10;102365.50;;;5.98;100.00
58534;BME280;44109;52.398;7.024;2023-04-09T05:12:38;102366.94;;;5.96;100.00
58534;BME280;44109;52.398;7.024;2023-04-09T05:15:06;102363.06;;;5.97;100.00
58534;BME280;44109;52.398;7.024;2023-04-09T05:17:34;102370.44;;;6.01;100.00
58534;BME280;44109;52.398;7.024;2023-04-09T05:20:04;102371.69;;;6.09;100.00
58534;BME280;44109;52.398;7.024;2023-04-09T05:22:32;102363.63;;;6.13;100.00
58534;BME280;44109;52.398;7.024;2023-04-09T05:25:01;102338.19;;;6.02;100.00
58534;BME280;44109;52.398;7.024;2023-04-09T05:27:29;102376.13;;;6.24;100.00
58534;BME280;44109;52.398;7.024;2023-04-09T05:29:56;102370.00;;;6.27;100.00
58534;BME280;44109;52.398;7.024;2023-04-09T05:32:24;102373.78;;;6.31;100.00
58534;BME280;44109;52.398;7.024;2023-04-09T05:34:52;102379.41;;;6.40;100.00
58534;BME280;44109;52.398;7.024;2023-04-09T05:37:21;102379.03;;;6.46;100.00
58534;BME280;44109;52.398;7.024;2023-04-09T05:39:48;102370.47;;;6.61;100.00
58534;BME280;44109;52.398;7.024;2023-04-09T05:42:16;102368.06;;;6.88;100.00
58534;BME280;44109;52.398;7.024;2023-04-09T05:44:43;102373.06;;;7.13;100.00
58534;BME280;44109;52.398;7.024;2023-04-09T05:47:11;102358.72;;;7.25;100.00
58534;BME280;44109;52.398;7.024;2023-04-09T05:49:39;102372.34;;;7.57;100.00
58534;BME280;44109;52.398;7.024;2023-04-09T05:52:06;102380.47;;;7.76;100.00
58534;BME280;44109;52.398;7.024;2023-04-09T05:54:35;102372.19;;;7.99;100.00
58534;BME280;44109;52.398;7.024;2023-04-09T05:57:03;102372.53;;;8.20;100.00
58534;BME280;44109;52.398;7.024;2023-04-09T05:59:30;102368.34;;;8.31;100.00
58534;BME280;44109;52.398;7.024;2023-04-09T06:01:58;102369.53;;;8.61;100.00
58534;BME280;44109;52.398;7.024;2023-04-09T06:04:26;102370.06;;;8.72;100.00
58534;BME280;44109;52.398;7.024;2023-04-09T06:06:53;102373.38;;;8.82;100.00
58534;BME280;44109;52.398;7.024;2023-04-09T06:09:25;102366.91;;;8.96;100.00
58534;BME280;44109;52.398;7.024;2023-04-09T06:11:54;102362.50;;;8.95;100.00
58534;BME280;44109;52.398;7.024;2023-04-09T06:14:22;102357.00;;;9.03;100.00
58534;BME280;44109;52.398;7.024;2023-04-09T06:16:50;102366.84;;;9.44;100.00
58534;BME280;44109;52.398;7.024;2023-04-09T06:19:18;102376.81;;;9.97;100.00
58534;BME280;44109;52.398;7.024;2023-04-09T06:21:45;102363.13;;;10.18;100.00
58534;BME280;44109;52.398;7.024;2023-04-09T06:24:13;102365.84;;;10.44;100.00
58534;BME280;44109;52.398;7.024;2023-04-09T06:26:41;102364.59;;;10.71;100.00
58534;BME280;44109;52.398;7.024;2023-04-09T06:29:10;102369.59;;;10.95;100.00
58534;BME280;44109;52.398;7.024;2023-04-09T06:31:37;102379.28;;;11.39;100.00
58534;BME280;44109;52.398;7.024;2023-04-09T06:34:05;102378.84;;;11.79;100.00
58534;BME280;44109;52.398;7.024;2023-04-09T06:36:33;102375.50;;;12.07;100.00
58534;BME280;44109;52.398;7.024;2023-04-09T06:39:02;102383.53;;;12.41;100.00
58534;BME280;44109;52.398;7.024;2023-04-09T06:41:30;102383.81;;;12.73;100.00
58534;BME280;44109;52.398;7.024;2023-04-09T06:43:58;102388.19;;;12.62;100.00
58534;BME280;44109;52.398;7.024;2023-04-09T06:46:27;102393.72;;;12.95;100.00
58534;BME280;44109;52.398;7.024;2023-04-09T06:48:55;102394.75;;;12.90;100.00
58534;BME280;44109;52.398;7.024;2023-04-09T06:51:23;102388.81;;;13.16;100.00
58534;BME280;44109;52.398;7.024;2023-04-09T06:53:50;102397.50;;;13.64;100.00
58534;BME280;44109;52.398;7.024;2023-04-09T06:56:18;102393.34;;;13.98;100.00
58534;BME280;44109;52.398;7.024;2023-04-09T06:58:46;102395.72;;;14.12;90.76
58534;BME280;44109;52.398;7.024;2023-04-09T07:01:13;102399.13;;;14.33;87.75
58534;BME280;44109;52.398;7.024;2023-04-09T07:03:43;102393.69;;;14.25;86.70
58534;BME280;44109;52.398;7.024;2023-04-09T07:06:11;102395.81;;;14.43;83.20
58534;BME280;44109;52.398;7.024;2023-04-09T07:08:39;102391.03;;;14.72;83.94
58534;BME280;44109;52.398;7.024;2023-04-09T07:11:07;102397.47;;;15.08;82.73
58534;BME280;44109;52.398;7.024;2023-04-09T07:13:34;102397.97;;;14.78;73.70
58534;BME280;44109;52.398;7.024;2023-04-09T07:16:02;102397.84;;;14.75;77.52
58534;BME280;44109;52.398;7.024;2023-04-09T07:18:30;102403.72;;;15.01;78.87
58534;BME280;44109;52.398;7.024;2023-04-09T07:20:59;102405.97;;;15.27;73.12
58534;BME280;44109;52.398;7.024;2023-04-09T07:23:26;102402.84;;;15.64;75.03
58534;BME280;44109;52.398;7.024;2023-04-09T07:25:54;102403.88;;;15.75;72.83
58534;BME280;44109;52.398;7.024;2023-04-09T07:28:22;102419.72;;;15.87;73.45
58534;BME280;44109;52.398;7.024;2023-04-09T07:30:49;102404.53;;;15.68;70.27
58534;BME280;44109;52.398;7.024;2023-04-09T07:33:17;102401.75;;;15.88;71.33
58534;BME280;44109;52.398;7.024;2023-04-09T07:35:45;102408.75;;;15.78;70.21
58534;BME280;44109;52.398;7.024;2023-04-09T07:38:14;102408.69;;;16.13;66.74
58534;BME280;44109;52.398;7.024;2023-04-09T07:40:42;102400.34;;;16.36;73.71
58534;BME280;44109;52.398;7.024;2023-04-09T07:43:09;102395.47;;;16.98;72.49
58534;BME280;44109;52.398;7.024;2023-04-09T07:45:37;102396.91;;;16.89;66.01
58534;BME280;44109;52.398;7.024;2023-04-09T07:48:05;102395.75;;;17.16;64.29
58534;BME280;44109;52.398;7.024;2023-04-09T07:50:34;102389.34;;;17.42;64.63
58534;BME280;44109;52.398;7.024;2023-04-09T07:53:01;102391.31;;;17.68;64.35
58534;BME280;44109;52.398;7.024;2023-04-09T07:55:30;102389.84;;;17.21;60.00
58534;BME280;44109;52.398;7.024;2023-04-09T07:57:58;102376.94;;;17.43;61.83
58534;BME280;44109;52.398;7.024;2023-04-09T08:00:25;102395.69;;;17.66;63.79
58534;BME280;44109;52.398;7.024;2023-04-09T08:02:53;102396.13;;;17.94;62.54
58534;BME280;44109;52.398;7.024;2023-04-09T08:05:22;102398.81;;;18.21;61.54
58534;BME280;44109;52.398;7.024;2023-04-09T08:07:50;102394.75;;;18.52;61.43
58534;BME280;44109;52.398;7.024;2023-04-09T08:10:18;102405.78;;;18.31;58.62
58534;BME280;44109;52.398;7.024;2023-04-09T08:12:48;102392.78;;;18.19;56.36
58534;BME280;44109;52.398;7.024;2023-04-09T08:15:15;102399.94;;;18.50;57.41
58534;BME280;44109;52.398;7.024;2023-04-09T08:17:43;102395.22;;;18.58;56.58
58534;BME280;44109;52.398;7.024;2023-04-09T08:20:11;102393.53;;;18.49;59.37
58534;BME280;44109;52.398;7.024;2023-04-09T08:22:39;102396.81;;;18.99;58.67
58534;BME280;44109;52.398;7.024;2023-04-09T08:25:07;102398.41;;;18.97;53.72
58534;BME280;44109;52.398;7.024;2023-04-09T08:27:36;102390.97;;;19.22;57.72
58534;BME280;44109;52.398;7.024;2023-04-09T08:30:07;102398.84;;;19.58;57.05
58534;BME280;44109;52.398;7.024;2023-04-09T08:32:36;102387.63;;;19.61;54.58
58534;BME280;44109;52.398;7.024;2023-04-09T08:35:04;102384.84;;;19.10;55.27
58534;BME280;44109;52.398;7.024;2023-04-09T08:37:32;102389.19;;;19.59;54.44
58534;BME280;44109;52.398;7.024;2023-04-09T08:40:00;102385.81;;;20.12;53.62
58534;BME280;44109;52.398;7.024;2023-04-09T08:42:28;102387.16;;;20.57;54.59
58534;BME280;44109;52.398;7.024;2023-04-09T08:45:02;102383.97;;;20.80;53.29
58534;BME280;44109;52.398;7.024;2023-04-09T08:47:32;102383.16;;;21.12;53.36
58534;BME280;44109;52.398;7.024;2023-04-09T08:50:03;102380.38;;;20.76;48.83
58534;BME280;44109;52.398;7.024;2023-04-09T08:52:31;102385.72;;;19.83;46.55
58534;BME280;44109;52.398;7.024;2023-04-09T08:55:00;102378.97;;;20.06;50.21
58534;BME280;44109;52.398;7.024;2023-04-09T08:57:28;102383.09;;;20.40;48.58
58534;BME280;44109;52.398;7.024;2023-04-09T08:59:56;102379.00;;;20.09;46.87
58534;BME280;44109;52.398;7.024;2023-04-09T09:02:23;102387.03;;;20.14;51.10
58534;BME280;44109;52.398;7.024;2023-04-09T09:04:52;102383.50;;;20.42;49.01
58534;BME280;44109;52.398;7.024;2023-04-09T09:07:26;102384.78;;;20.91;51.55
58534;BME280;44109;52.398;7.024;2023-04-09T09:09:56;102369.47;;;20.78;50.01
58534;BME280;44109;52.398;7.024;2023-04-09T09:12:32;102377.53;;;20.87;47.78
58534;BME280;44109;52.398;7.024;2023-04-09T09:15:05;102379.16;;;20.98;47.97
58534;BME280;44109;52.398;7.024;2023-04-09T09:17:53;102379.53;;;20.93;49.10
58534;BME280;44109;52.398;7.024;2023-04-09T09:20:24;102375.91;;;20.61;46.69
58534;BME280;44109;52.398;7.024;2023-04-09T09:22:53;102381.97;;;20.77;46.54
58534;BME280;44109;52.398;7.024;2023-04-09T09:25:22;102376.72;;;20.65;49.89
58534;BME280;44109;52.398;7.024;2023-04-09T09:27:51;102375.09;;;20.64;47.93
58534;BME280;44109;52.398;7.024;2023-04-09T09:30:20;102368.69;;;20.81;47.55
58534;BME280;44109;52.398;7.024;2023-04-09T09:32:51;102367.03;;;21.09;47.92
58534;BME280;44109;52.398;7.024;2023-04-09T09:35:19;102366.25;;;20.72;46.88
58534;BME280;44109;52.398;7.024;2023-04-09T09:38:00;102364.63;;;20.78;47.08
58534;BME280;44109;52.398;7.024;2023-04-09T09:40:29;102363.03;;;20.95;48.26
58534;BME280;44109;52.398;7.024;2023-04-09T09:42:57;102360.53;;;20.37;47.37
58534;BME280;44109;52.398;7.024;2023-04-09T09:45:25;102348.31;;;19.83;44.28
58534;BME280;44109;52.398;7.024;2023-04-09T09:47:53;102362.09;;;20.09;48.37
58534;BME280;44109;52.398;7.024;2023-04-09T09:50:25;102310.50;;;19.87;48.58
58534;BME280;44109;52.398;7.024;2023-04-09T09:53:01;102348.81;;;20.24;49.52
58534;BME280;44109;52.398;7.024;2023-04-09T09:55:32;102337.19;;;20.43;47.67
58534;BME280;44109;52.398;7.024;2023-04-09T09:58:02;102321.84;;;20.30;47.77
58534;BME280;44109;52.398;7.024;2023-04-09T10:00:39;102343.91;;;19.92;45.19
58534;BME280;44109;52.398;7.024;2023-04-09T10:03:12;102342.31;;;19.95;44.57
58534;BME280;44109;52.398;7.024;2023-04-09T10:05:42;102339.88;;;19.93;46.61
58534;BME280;44109;52.398;7.024;2023-04-09T10:08:12;102329.75;;;19.71;47.38
58534;BME280;44109;52.398;7.024;2023-04-09T10:10:41;102333.81;;;19.77;47.03
58534;BME280;44109;52.398;7.024;2023-04-09T10:13:14;102331.75;;;19.70;42.21
58534;BME280;44109;52.398;7.024;2023-04-09T10:15:47;102337.84;;;19.10;41.29
58534;BME280;44109;52.398;7.024;2023-04-09T10:18:16;102337.50;;;19.19;45.08
58534;BME280;44109;52.398;7.024;2023-04-09T10:20:48;102331.00;;;19.08;45.97
58534;BME280;44109;52.398;7.024;2023-04-09T10:23:31;102310.38;;;18.45;45.78
58534;BME280;44109;52.398;7.024;2023-04-09T10:26:03;102317.34;;;18.21;46.29
58534;BME280;44109;52.398;7.024;2023-04-09T10:28:31;102321.94;;;18.77;48.61
58534;BME280;44109;52.398;7.024;2023-04-09T10:30:59;102327.69;;;18.98;46.42
58534;BME280;44109;52.398;7.024;2023-04-09T10:33:27;102326.56;;;19.03;43.93
58534;BME280;44109;52.398;7.024;2023-04-09T10:35:59;102321.59;;;18.86;44.95
58534;BME280;44109;52.398;7.024;2023-04-09T10:38:36;102318.50;;;18.54;43.65
58534;BME280;44109;52.398;7.024;2023-04-09T10:41:07;102288.44;;;17.80;41.93
58534;BME280;44109;52.398;7.024;2023-04-09T10:43:37;102307.44;;;18.34;44.95
58534;BME280;44109;52.398;7.024;2023-04-09T10:46:07;102313.19;;;18.48;44.46
58534;BME280;44109;52.398;7.024;2023-04-09T10:49:10;102307.91;;;18.36;46.64
58534;BME280;44109;52.398;7.024;2023-04-09T10:51:47;102305.56;;;18.45;46.79
58534;BME280;44109;52.398;7.024;2023-04-09T10:54:41;102306.28;;;18.39;47.25
58534;BME280;44109;52.398;7.024;2023-04-09T10:57:16;102306.97;;;18.25;46.41
58534;BME280;44109;52.398;7.024;2023-04-09T10:59:47;102285.28;;;18.22;46.96
58534;BME280;44109;52.398;7.024;2023-04-09T11:05:42;102295.78;;;18.29;47.33
58534;BME280;44109;52.398;7.024;2023-04-09T11:08:15;102292.28;;;18.42;47.54
58534;BME280;44109;52.398;7.024;2023-04-09T11:10:45;102280.69;;;18.07;44.81
58534;BME280;44109;52.398;7.024;2023-04-09T11:13:14;102289.59;;;18.12;45.72
58534;BME280;44109;52.398;7.024;2023-04-09T11:15:44;102288.84;;;18.19;46.66
58534;BME280;44109;52.398;7.024;2023-04-09T11:18:14;102285.34;;;18.29;46.17
58534;BME280;44109;52.398;7.024;2023-04-09T11:20:46;102256.19;;;18.00;43.84
58534;BME280;44109;52.398;7.024;2023-04-09T11:23:15;102268.78;;;17.80;45.26
58534;BME280;44109;52.398;7.024;2023-04-09T11:25:47;102266.25;;;17.71;45.82
58534;BME280;44109;52.398;7.024;2023-04-09T11:28:17;102270.53;;;17.61;44.89
58534;BME280;44109;52.398;7.024;2023-04-09T11:30:45;102265.72;;;17.92;41.81
58534;BME280;44109;52.398;7.024;2023-04-09T11:33:13;102264.44;;;18.23;43.20
58534;BME280;44109;52.398;7.024;2023-04-09T11:35:41;102271.78;;;18.38;44.93
58534;BME280;44109;52.398;7.024;2023-04-09T11:38:10;102264.06;;;18.72;44.78
58534;BME280;44109;52.398;7.024;2023-04-09T11:40:41;102263.81;;;18.47;41.65
58534;BME280;44109;52.398;7.024;2023-04-09T11:43:14;102254.19;;;18.45;45.24
58534;BME280;44109;52.398;7.024;2023-04-09T11:45:43;102266.63;;;18.47;45.98
58534;BME280;44109;52.398;7.024;2023-04-09T11:48:13;102264.44;;;18.23;45.93
58534;BME280;44109;52.398;7.024;2023-04-09T11:50:43;102262.81;;;18.22;45.91
58534;BME280;44109;52.398;7.024;2023-04-09T11:53:15;102271.84;;;18.45;48.27
58534;BME280;44109;52.398;7.024;2023-04-09T11:55:49;102259.84;;;18.52;46.08
58534;BME280;44109;52.398;7.024;2023-04-09T11:58:21;102265.19;;;18.68;45.51
58534;BME280;44109;52.398;7.024;2023-04-09T12:00:52;102266.63;;;18.95;47.47
58534;BME280;44109;52.398;7.024;2023-04-09T12:03:26;102275.34;;;18.76;45.25
58534;BME280;44109;52.398;7.024;2023-04-09T12:05:55;102266.31;;;19.08;46.05
58534;BME280;44109;52.398;7.024;2023-04-09T12:08:26;102244.88;;;18.85;41.62
58534;BME280;44109;52.398;7.024;2023-04-09T12:10:54;102258.22;;;18.99;44.72
58534;BME280;44109;52.398;7.024;2023-04-09T12:13:31;102260.31;;;19.13;43.62
58534;BME280;44109;52.398;7.024;2023-04-09T12:15:59;102256.38;;;19.39;40.83
58534;BME280;44109;52.398;7.024;2023-04-09T12:18:28;102205.84;;;19.64;43.43
58534;BME280;44109;52.398;7.024;2023-04-09T12:20:56;102250.59;;;20.01;43.28
58534;BME280;44109;52.398;7.024;2023-04-09T12:23:24;102253.44;;;20.33;44.96
58534;BME280;44109;52.398;7.024;2023-04-09T12:25:51;102250.63;;;20.47;41.82
58534;BME280;44109;52.398;7.024;2023-04-09T12:28:20;102251.00;;;20.42;41.72
58534;BME280;44109;52.398;7.024;2023-04-09T12:30:49;102249.78;;;20.11;39.93
58534;BME280;44109;52.398;7.024;2023-04-09T12:33:17;102248.97;;;20.11;41.56
58534;BME280;44109;52.398;7.024;2023-04-09T12:35:45;102244.56;;;20.45;40.92
58534;BME280;44109;52.398;7.024;2023-04-09T12:38:13;102235.72;;;20.36;40.91
58534;BME280;44109;52.398;7.024;2023-04-09T12:40:40;102239.78;;;20.49;39.97
58534;BME280;44109;52.398;7.024;2023-04-09T12:43:08;102246.19;;;20.36;41.95
58534;BME280;44109;52.398;7.024;2023-04-09T12:45:36;102240.09;;;19.98;39.03
58534;BME280;44109;52.398;7.024;2023-04-09T12:48:05;102234.44;;;19.80;37.27
58534;BME280;44109;52.398;7.024;2023-04-09T12:50:33;102234.75;;;19.54;40.48
58534;BME280;44109;52.398;7.024;2023-04-09T12:53:01;102235.88;;;19.35;40.75
58534;BME280;44109;52.398;7.024;2023-04-09T12:55:28;102238.00;;;19.59;42.87
58534;BME280;44109;52.398;7.024;2023-04-09T12:57:56;102249.38;;;19.95;42.73
58534;BME280;44109;52.398;7.024;2023-04-09T13:00:24;102240.53;;;20.43;43.50
58534;BME280;44109;52.398;7.024;2023-04-09T13:02:55;102242.94;;;20.87;42.10